sensor_id;sensor_type;location;lat;lon;timestamp;temperature;humidity
7014;DHT22;3547;50.774;12.918;2022-10-13T00:01:34;11.20;1.00
7014;DHT22;3547;50.774;12.918;2022-10-13T00:04:00;11.30;1.00
7014;DHT22;3547;50.774;12.918;2022-10-13T00:06:26;11.30;1.00
7014;DHT22;3547;50.774;12.918;2022-10-13T00:08:53;11.30;1.00
7014;DHT22;3547;50.774;12.918;2022-10-13T00:11:26;11.30;1.00
7014;DHT22;3547;50.774;12.918;2022-10-13T00:13:58;11.30;1.00
7014;DHT22;3547;50.774;12.918;2022-10-13T00:16:26;11.30;1.00
7014;DHT22;3547;50.774;12.918;2022-10-13T00:18:52;11.30;1.00
7014;DHT22;3547;50.774;12.918;2022-10-13T00:21:21;11.30;1.00
7014;DHT22;3547;50.774;12.918;2022-10-13T00:23:48;11.20;1.00
7014;DHT22;3547;50.774;12.918;2022-10-13T00:26:16;11.20;1.00
7014;DHT22;3547;50.774;12.918;2022-10-13T00:28:42;11.20;1.00
7014;DHT22;3547;50.774;12.918;2022-10-13T00:31:27;11.20;1.00
7014;DHT22;3547;50.774;12.918;2022-10-13T00:33:54;11.20;1.00
7014;DHT22;3547;50.774;12.918;2022-10-13T00:36:21;11.20;1.00
7014;DHT22;3547;50.774;12.918;2022-10-13T00:38:48;11.20;1.00
7014;DHT22;3547;50.774;12.918;2022-10-13T00:41:14;11.00;1.00
7014;DHT22;3547;50.774;12.918;2022-10-13T00:46:25;11.00;1.00
7014;DHT22;3547;50.774;12.918;2022-10-13T00:48:52;11.00;1.00
7014;DHT22;3547;50.774;12.918;2022-10-13T00:51:23;11.00;1.00
7014;DHT22;3547;50.774;12.918;2022-10-13T00:53:51;11.10;1.00
7014;DHT22;3547;50.774;12.918;2022-10-13T00:56:19;11.20;1.00
7014;DHT22;3547;50.774;12.918;2022-10-13T00:58:46;11.20;1.00
7014;DHT22;3547;50.774;12.918;2022-10-13T01:01:13;11.20;1.00
7014;DHT22;3547;50.774;12.918;2022-10-13T01:03:39;11.10;1.00
7014;DHT22;3547;50.774;12.918;2022-10-13T01:06:07;11.00;1.00
7014;DHT22;3547;50.774;12.918;2022-10-13T01:08:33;10.80;1.00
7014;DHT22;3547;50.774;12.918;2022-10-13T01:30:50;10.00;1.00
7014;DHT22;3547;50.774;12.918;2022-10-13T01:39:02;10.00;1.00
7014;DHT22;3547;50.774;12.918;2022-10-13T01:44:25;10.00;1.70
7014;DHT22;3547;50.774;12.918;2022-10-13T01:46:53;10.00;1.30
7014;DHT22;3547;50.774;12.918;2022-10-13T01:49:23;10.10;1.00
7014;DHT22;3547;50.774;12.918;2022-10-13T01:51:54;10.00;1.00
7014;DHT22;3547;50.774;12.918;2022-10-13T01:54:21;10.00;1.00
7014;DHT22;3547;50.774;12.918;2022-10-13T01:56:52;10.00;1.00
7014;DHT22;3547;50.774;12.918;2022-10-13T01:59:19;9.90;1.80
7014;DHT22;3547;50.774;12.918;2022-10-13T02:07:19;10.10;7.10
7014;DHT22;3547;50.774;12.918;2022-10-13T02:12:38;10.30;13.90
7014;DHT22;3547;50.774;12.918;2022-10-13T02:15:08;10.40;10.80
7014;DHT22;3547;50.774;12.918;2022-10-13T02:20:59;10.50;12.60
7014;DHT22;3547;50.774;12.918;2022-10-13T02:23:27;10.60;12.00
7014;DHT22;3547;50.774;12.918;2022-10-13T02:25:55;10.60;7.70
7014;DHT22;3547;50.774;12.918;2022-10-13T02:28:23;10.60;6.90
7014;DHT22;3547;50.774;12.918;2022-10-13T02:30:50;10.60;5.20
7014;DHT22;3547;50.774;12.918;2022-10-13T02:36:39;10.60;4.20
7014;DHT22;3547;50.774;12.918;2022-10-13T02:39:07;10.60;7.60
7014;DHT22;3547;50.774;12.918;2022-10-13T02:41:33;10.60;10.10
7014;DHT22;3547;50.774;12.918;2022-10-13T02:43:59;10.50;10.70
7014;DHT22;3547;50.774;12.918;2022-10-13T02:46:25;10.60;10.40
7014;DHT22;3547;50.774;12.918;2022-10-13T02:48:52;10.70;10.50
7014;DHT22;3547;50.774;12.918;2022-10-13T02:51:18;10.70;12.30
7014;DHT22;3547;50.774;12.918;2022-10-13T02:53:44;10.70;14.40
7014;DHT22;3547;50.774;12.918;2022-10-13T02:56:10;10.70;10.30
7014;DHT22;3547;50.774;12.918;2022-10-13T02:58:36;10.70;13.70
7014;DHT22;3547;50.774;12.918;2022-10-13T03:01:07;10.80;14.90
7014;DHT22;3547;50.774;12.918;2022-10-13T03:03:34;10.80;19.40
7014;DHT22;3547;50.774;12.918;2022-10-13T03:06:00;10.80;19.40
7014;DHT22;3547;50.774;12.918;2022-10-13T03:08:27;10.80;20.80
7014;DHT22;3547;50.774;12.918;2022-10-13T03:10:54;10.80;21.50
7014;DHT22;3547;50.774;12.918;2022-10-13T03:13:20;10.80;25.70
7014;DHT22;3547;50.774;12.918;2022-10-13T03:15:46;10.80;28.10
7014;DHT22;3547;50.774;12.918;2022-10-13T03:18:13;10.90;27.10
7014;DHT22;3547;50.774;12.918;2022-10-13T03:20:39;10.90;30.10
7014;DHT22;3547;50.774;12.918;2022-10-13T03:23:05;10.90;27.40
7014;DHT22;3547;50.774;12.918;2022-10-13T03:25:32;10.90;27.30
7014;DHT22;3547;50.774;12.918;2022-10-13T03:27:59;10.90;28.90
7014;DHT22;3547;50.774;12.918;2022-10-13T03:30:25;10.90;28.40
7014;DHT22;3547;50.774;12.918;2022-10-13T03:32:51;10.80;28.70
7014;DHT22;3547;50.774;12.918;2022-10-13T03:35:18;10.90;28.50
7014;DHT22;3547;50.774;12.918;2022-10-13T03:37:44;10.80;27.20
7014;DHT22;3547;50.774;12.918;2022-10-13T03:40:10;10.70;25.60
7014;DHT22;3547;50.774;12.918;2022-10-13T03:42:38;10.70;25.30
7014;DHT22;3547;50.774;12.918;2022-10-13T03:45:05;10.70;28.40
7014;DHT22;3547;50.774;12.918;2022-10-13T03:47:34;10.60;29.40
7014;DHT22;3547;50.774;12.918;2022-10-13T03:50:00;10.60;25.80
7014;DHT22;3547;50.774;12.918;2022-10-13T03:52:26;10.50;24.90
7014;DHT22;3547;50.774;12.918;2022-10-13T03:54:52;10.40;27.40
7014;DHT22;3547;50.774;12.918;2022-10-13T03:57:19;10.40;25.60
7014;DHT22;3547;50.774;12.918;2022-10-13T03:59:45;10.40;25.10
7014;DHT22;3547;50.774;12.918;2022-10-13T04:02:11;10.40;24.30
7014;DHT22;3547;50.774;12.918;2022-10-13T04:04:37;10.30;23.20
7014;DHT22;3547;50.774;12.918;2022-10-13T04:07:04;10.30;29.50
7014;DHT22;3547;50.774;12.918;2022-10-13T04:09:30;10.30;29.90
7014;DHT22;3547;50.774;12.918;2022-10-13T04:12:08;10.20;30.40
7014;DHT22;3547;50.774;12.918;2022-10-13T04:14:37;10.10;33.80
7014;DHT22;3547;50.774;12.918;2022-10-13T04:17:04;10.10;38.90
7014;DHT22;3547;50.774;12.918;2022-10-13T04:19:30;10.10;38.60
7014;DHT22;3547;50.774;12.918;2022-10-13T04:21:56;10.00;36.10
7014;DHT22;3547;50.774;12.918;2022-10-13T04:24:22;10.00;39.50
7014;DHT22;3547;50.774;12.918;2022-10-13T04:26:48;9.90;45.90
7014;DHT22;3547;50.774;12.918;2022-10-13T04:29:14;9.90;51.20
7014;DHT22;3547;50.774;12.918;2022-10-13T04:31:41;9.90;58.80
7014;DHT22;3547;50.774;12.918;2022-10-13T04:34:10;9.90;56.10
7014;DHT22;3547;50.774;12.918;2022-10-13T04:36:37;9.90;51.30
7014;DHT22;3547;50.774;12.918;2022-10-13T04:39:03;9.90;54.90
7014;DHT22;3547;50.774;12.918;2022-10-13T04:41:29;9.90;54.30
7014;DHT22;3547;50.774;12.918;2022-10-13T04:43:56;9.80;64.90
7014;DHT22;3547;50.774;12.918;2022-10-13T04:46:24;9.80;55.30
7014;DHT22;3547;50.774;12.918;2022-10-13T04:48:51;9.70;57.40
7014;DHT22;3547;50.774;12.918;2022-10-13T04:51:23;9.50;62.90
7014;DHT22;3547;50.774;12.918;2022-10-13T04:53:54;9.50;66.00
7014;DHT22;3547;50.774;12.918;2022-10-13T04:56:20;9.50;69.90
7014;DHT22;3547;50.774;12.918;2022-10-13T04:58:47;9.50;63.00
7014;DHT22;3547;50.774;12.918;2022-10-13T05:01:16;9.40;58.30
7014;DHT22;3547;50.774;12.918;2022-10-13T05:03:42;9.40;55.90
7014;DHT22;3547;50.774;12.918;2022-10-13T05:06:21;9.40;59.00
7014;DHT22;3547;50.774;12.918;2022-10-13T05:08:48;9.30;56.40
7014;DHT22;3547;50.774;12.918;2022-10-13T05:11:14;9.20;60.00
7014;DHT22;3547;50.774;12.918;2022-10-13T05:13:41;9.10;58.40
7014;DHT22;3547;50.774;12.918;2022-10-13T05:16:09;9.10;48.20
7014;DHT22;3547;50.774;12.918;2022-10-13T05:18:36;9.00;73.30
7014;DHT22;3547;50.774;12.918;2022-10-13T05:21:14;9.00;99.90
7014;DHT22;3547;50.774;12.918;2022-10-13T05:23:41;9.00;99.90
7014;DHT22;3547;50.774;12.918;2022-10-13T05:26:10;8.90;99.90
7014;DHT22;3547;50.774;12.918;2022-10-13T05:28:37;8.90;99.90
7014;DHT22;3547;50.774;12.918;2022-10-13T05:33:41;8.80;99.90
7014;DHT22;3547;50.774;12.918;2022-10-13T05:36:10;8.90;99.90
7014;DHT22;3547;50.774;12.918;2022-10-13T05:38:36;8.90;99.90
7014;DHT22;3547;50.774;12.918;2022-10-13T05:41:05;8.90;99.90
7014;DHT22;3547;50.774;12.918;2022-10-13T05:43:32;9.00;99.90
7014;DHT22;3547;50.774;12.918;2022-10-13T05:45:59;9.10;99.90
7014;DHT22;3547;50.774;12.918;2022-10-13T05:48:26;9.20;99.90
7014;DHT22;3547;50.774;12.918;2022-10-13T05:50:53;9.20;99.90
7014;DHT22;3547;50.774;12.918;2022-10-13T05:53:22;9.20;99.90
7014;DHT22;3547;50.774;12.918;2022-10-13T05:55:50;9.20;99.90
7014;DHT22;3547;50.774;12.918;2022-10-13T05:58:17;9.10;99.90
7014;DHT22;3547;50.774;12.918;2022-10-13T06:00:44;9.10;99.90
7014;DHT22;3547;50.774;12.918;2022-10-13T06:03:13;9.00;99.90
7014;DHT22;3547;50.774;12.918;2022-10-13T06:05:40;9.10;99.90
7014;DHT22;3547;50.774;12.918;2022-10-13T06:08:08;9.20;1.00
7014;DHT22;3547;50.774;12.918;2022-10-13T06:10:36;9.20;1.00
7014;DHT22;3547;50.774;12.918;2022-10-13T06:13:02;9.40;1.00
7014;DHT22;3547;50.774;12.918;2022-10-13T06:15:29;9.50;1.00
7014;DHT22;3547;50.774;12.918;2022-10-13T06:17:55;9.60;1.00
7014;DHT22;3547;50.774;12.918;2022-10-13T06:20:21;9.70;1.00
7014;DHT22;3547;50.774;12.918;2022-10-13T06:22:47;9.90;1.00
7014;DHT22;3547;50.774;12.918;2022-10-13T06:25:16;10.00;1.00
7014;DHT22;3547;50.774;12.918;2022-10-13T06:27:42;9.90;99.90
7014;DHT22;3547;50.774;12.918;2022-10-13T06:30:08;9.90;1.00
7014;DHT22;3547;50.774;12.918;2022-10-13T06:32:34;10.10;1.00
7014;DHT22;3547;50.774;12.918;2022-10-13T06:35:01;10.10;1.00
7014;DHT22;3547;50.774;12.918;2022-10-13T06:37:27;10.00;99.90
7014;DHT22;3547;50.774;12.918;2022-10-13T06:39:53;10.00;99.90
7014;DHT22;3547;50.774;12.918;2022-10-13T06:42:19;9.90;99.90
7014;DHT22;3547;50.774;12.918;2022-10-13T06:44:45;9.90;99.90
7014;DHT22;3547;50.774;12.918;2022-10-13T06:47:12;10.00;99.90
7014;DHT22;3547;50.774;12.918;2022-10-13T06:49:38;10.10;99.90
7014;DHT22;3547;50.774;12.918;2022-10-13T06:52:04;10.20;99.90
7014;DHT22;3547;50.774;12.918;2022-10-13T06:54:30;10.40;99.90
7014;DHT22;3547;50.774;12.918;2022-10-13T06:56:56;10.40;99.90
7014;DHT22;3547;50.774;12.918;2022-10-13T06:59:23;10.60;99.90
7014;DHT22;3547;50.774;12.918;2022-10-13T07:01:51;10.70;99.90
7014;DHT22;3547;50.774;12.918;2022-10-13T07:04:18;10.80;99.90
7014;DHT22;3547;50.774;12.918;2022-10-13T07:06:44;10.80;99.90
7014;DHT22;3547;50.774;12.918;2022-10-13T07:09:10;10.90;99.90
7014;DHT22;3547;50.774;12.918;2022-10-13T07:11:36;11.10;99.90
7014;DHT22;3547;50.774;12.918;2022-10-13T07:14:03;11.20;99.90
7014;DHT22;3547;50.774;12.918;2022-10-13T07:16:30;11.40;99.90
7014;DHT22;3547;50.774;12.918;2022-10-13T07:18:56;11.50;99.90
7014;DHT22;3547;50.774;12.918;2022-10-13T07:21:22;11.60;99.90
7014;DHT22;3547;50.774;12.918;2022-10-13T07:23:49;11.70;99.90
7014;DHT22;3547;50.774;12.918;2022-10-13T07:26:15;11.80;99.90
7014;DHT22;3547;50.774;12.918;2022-10-13T07:28:42;11.90;99.90
7014;DHT22;3547;50.774;12.918;2022-10-13T07:31:11;12.00;99.90
7014;DHT22;3547;50.774;12.918;2022-10-13T07:33:39;12.10;99.90
7014;DHT22;3547;50.774;12.918;2022-10-13T07:36:06;12.10;99.90
7014;DHT22;3547;50.774;12.918;2022-10-13T07:38:32;12.10;99.90
7014;DHT22;3547;50.774;12.918;2022-10-13T07:41:00;12.00;99.90
7014;DHT22;3547;50.774;12.918;2022-10-13T07:43:28;12.00;99.90
7014;DHT22;3547;50.774;12.918;2022-10-13T07:45:54;12.00;99.90
7014;DHT22;3547;50.774;12.918;2022-10-13T07:48:20;12.00;99.90
7014;DHT22;3547;50.774;12.918;2022-10-13T07:50:46;11.90;99.90
7014;DHT22;3547;50.774;12.918;2022-10-13T07:53:12;12.00;99.90
7014;DHT22;3547;50.774;12.918;2022-10-13T07:55:38;12.10;99.90
7014;DHT22;3547;50.774;12.918;2022-10-13T07:58:05;12.20;99.90
7014;DHT22;3547;50.774;12.918;2022-10-13T08:00:31;12.40;99.90
7014;DHT22;3547;50.774;12.918;2022-10-13T08:02:57;12.50;99.90
7014;DHT22;3547;50.774;12.918;2022-10-13T08:05:23;12.70;99.90
7014;DHT22;3547;50.774;12.918;2022-10-13T08:07:49;12.80;99.90
7014;DHT22;3547;50.774;12.918;2022-10-13T08:10:16;12.90;99.90
7014;DHT22;3547;50.774;12.918;2022-10-13T08:12:45;12.90;99.90
7014;DHT22;3547;50.774;12.918;2022-10-13T08:15:11;13.00;99.90
7014;DHT22;3547;50.774;12.918;2022-10-13T08:17:49;13.10;99.90
7014;DHT22;3547;50.774;12.918;2022-10-13T08:20:15;13.20;99.90
7014;DHT22;3547;50.774;12.918;2022-10-13T08:22:41;13.20;99.90
7014;DHT22;3547;50.774;12.918;2022-10-13T08:25:08;13.20;99.90
7014;DHT22;3547;50.774;12.918;2022-10-13T08:27:34;13.30;99.90
7014;DHT22;3547;50.774;12.918;2022-10-13T08:30:02;13.30;99.90
7014;DHT22;3547;50.774;12.918;2022-10-13T08:32:28;13.40;99.90
7014;DHT22;3547;50.774;12.918;2022-10-13T08:34:54;13.50;99.90
7014;DHT22;3547;50.774;12.918;2022-10-13T08:37:20;13.70;99.90
7014;DHT22;3547;50.774;12.918;2022-10-13T08:39:46;13.90;99.90
7014;DHT22;3547;50.774;12.918;2022-10-13T08:42:15;14.00;99.90
7014;DHT22;3547;50.774;12.918;2022-10-13T08:44:52;14.10;99.90
7014;DHT22;3547;50.774;12.918;2022-10-13T08:49:57;14.40;95.60
7014;DHT22;3547;50.774;12.918;2022-10-13T08:52:26;14.50;91.00
7014;DHT22;3547;50.774;12.918;2022-10-13T08:54:54;14.50;73.20
7014;DHT22;3547;50.774;12.918;2022-10-13T08:57:21;14.60;66.30
7014;DHT22;3547;50.774;12.918;2022-10-13T08:59:48;14.70;70.40
7014;DHT22;3547;50.774;12.918;2022-10-13T09:02:23;14.80;72.30
7014;DHT22;3547;50.774;12.918;2022-10-13T09:04:52;14.90;64.30
7014;DHT22;3547;50.774;12.918;2022-10-13T09:07:28;15.00;46.50
7014;DHT22;3547;50.774;12.918;2022-10-13T09:09:56;15.00;48.50
7014;DHT22;3547;50.774;12.918;2022-10-13T09:12:23;15.10;47.30
7014;DHT22;3547;50.774;12.918;2022-10-13T09:14:59;15.10;48.80
7014;DHT22;3547;50.774;12.918;2022-10-13T09:17:27;15.20;43.50
7014;DHT22;3547;50.774;12.918;2022-10-13T09:23:15;15.40;44.00
7014;DHT22;3547;50.774;12.918;2022-10-13T09:25:45;15.50;42.60
7014;DHT22;3547;50.774;12.918;2022-10-13T09:28:23;15.60;38.30
7014;DHT22;3547;50.774;12.918;2022-10-13T09:31:12;15.70;40.90
7014;DHT22;3547;50.774;12.918;2022-10-13T09:33:39;15.70;39.30
7014;DHT22;3547;50.774;12.918;2022-10-13T09:36:10;15.70;28.40
7014;DHT22;3547;50.774;12.918;2022-10-13T09:38:37;15.70;36.30
7014;DHT22;3547;50.774;12.918;2022-10-13T09:41:19;15.70;33.90
7014;DHT22;3547;50.774;12.918;2022-10-13T09:46:31;15.80;41.30
7014;DHT22;3547;50.774;12.918;2022-10-13T09:49:04;15.90;37.20
7014;DHT22;3547;50.774;12.918;2022-10-13T09:51:42;16.00;28.90
7014;DHT22;3547;50.774;12.918;2022-10-13T09:54:46;16.00;27.50
7014;DHT22;3547;50.774;12.918;2022-10-13T10:00:08;16.10;24.10
7014;DHT22;3547;50.774;12.918;2022-10-13T10:07:48;16.10;12.70
7014;DHT22;3547;50.774;12.918;2022-10-13T10:10:28;16.20;20.90
7014;DHT22;3547;50.774;12.918;2022-10-13T10:12:56;16.30;26.90
7014;DHT22;3547;50.774;12.918;2022-10-13T10:15:29;16.40;25.90
7014;DHT22;3547;50.774;12.918;2022-10-13T10:18:57;16.40;25.50
7014;DHT22;3547;50.774;12.918;2022-10-13T10:23:59;16.50;23.30
7014;DHT22;3547;50.774;12.918;2022-10-13T10:29:18;16.60;20.20
7014;DHT22;3547;50.774;12.918;2022-10-13T10:31:58;16.70;19.10
7014;DHT22;3547;50.774;12.918;2022-10-13T10:34:35;16.80;15.10
7014;DHT22;3547;50.774;12.918;2022-10-13T10:45:27;16.60;7.90
7014;DHT22;3547;50.774;12.918;2022-10-13T10:47:59;16.50;3.30
7014;DHT22;3547;50.774;12.918;2022-10-13T10:50:31;16.40;1.00
7014;DHT22;3547;50.774;12.918;2022-10-13T10:58:37;16.40;2.70
7014;DHT22;3547;50.774;12.918;2022-10-13T11:03:46;16.50;4.80
7014;DHT22;3547;50.774;12.918;2022-10-13T11:08:42;16.80;8.00
7014;DHT22;3547;50.774;12.918;2022-10-13T11:14:00;16.90;1.00
7014;DHT22;3547;50.774;12.918;2022-10-13T11:16:34;17.00;4.60
7014;DHT22;3547;50.774;12.918;2022-10-13T11:19:04;17.00;6.10
7014;DHT22;3547;50.774;12.918;2022-10-13T11:45:46;17.20;1.00
7014;DHT22;3547;50.774;12.918;2022-10-13T11:48:22;17.10;1.00
7014;DHT22;3547;50.774;12.918;2022-10-13T11:56:47;17.20;1.00
7014;DHT22;3547;50.774;12.918;2022-10-13T11:59:28;17.30;1.00
7014;DHT22;3547;50.774;12.918;2022-10-13T12:01:57;17.20;1.00
7014;DHT22;3547;50.774;12.918;2022-10-13T12:04:26;17.00;1.00
7014;DHT22;3547;50.774;12.918;2022-10-13T12:06:59;16.80;1.00
7014;DHT22;3547;50.774;12.918;2022-10-13T12:09:27;16.90;1.00
7014;DHT22;3547;50.774;12.918;2022-10-13T12:12:03;16.70;1.00
7014;DHT22;3547;50.774;12.918;2022-10-13T12:14:38;16.70;1.70
7014;DHT22;3547;50.774;12.918;2022-10-13T12:19:47;16.40;1.00
7014;DHT22;3547;50.774;12.918;2022-10-13T12:22:15;16.30;1.00
7014;DHT22;3547;50.774;12.918;2022-10-13T12:24:41;16.30;1.00
7014;DHT22;3547;50.774;12.918;2022-10-13T12:27:20;16.30;1.00
7014;DHT22;3547;50.774;12.918;2022-10-13T12:29:46;16.30;1.00
7014;DHT22;3547;50.774;12.918;2022-10-13T12:32:24;16.20;1.00
7014;DHT22;3547;50.774;12.918;2022-10-13T12:34:51;16.00;1.00
7014;DHT22;3547;50.774;12.918;2022-10-13T12:37:32;15.80;1.00
7014;DHT22;3547;50.774;12.918;2022-10-13T12:39:59;15.80;1.00
7014;DHT22;3547;50.774;12.918;2022-10-13T12:42:34;15.90;1.00
7014;DHT22;3547;50.774;12.918;2022-10-13T12:45:01;15.90;1.00
7014;DHT22;3547;50.774;12.918;2022-10-13T12:53:00;16.00;1.00
7014;DHT22;3547;50.774;12.918;2022-10-13T12:55:28;16.20;2.10
7014;DHT22;3547;50.774;12.918;2022-10-13T12:57:55;16.40;3.10
7014;DHT22;3547;50.774;12.918;2022-10-13T13:00:27;16.60;1.20
7014;DHT22;3547;50.774;12.918;2022-10-13T13:02:56;16.70;1.00
7014;DHT22;3547;50.774;12.918;2022-10-13T13:05:35;16.80;1.00
7014;DHT22;3547;50.774;12.918;2022-10-13T13:08:04;16.90;1.00
7014;DHT22;3547;50.774;12.918;2022-10-13T13:10:31;16.90;1.00
7014;DHT22;3547;50.774;12.918;2022-10-13T13:13:13;17.10;1.00
7014;DHT22;3547;50.774;12.918;2022-10-13T13:15:40;17.30;1.00
7014;DHT22;3547;50.774;12.918;2022-10-13T13:20:53;17.50;1.00
7014;DHT22;3547;50.774;12.918;2022-10-13T13:23:20;17.60;1.00
7014;DHT22;3547;50.774;12.918;2022-10-13T13:25:58;17.70;1.00
7014;DHT22;3547;50.774;12.918;2022-10-13T13:28:28;17.70;1.00
7014;DHT22;3547;50.774;12.918;2022-10-13T13:30:55;17.60;1.00
7014;DHT22;3547;50.774;12.918;2022-10-13T13:33:21;17.70;1.00
7014;DHT22;3547;50.774;12.918;2022-10-13T13:35:47;17.70;1.00
7014;DHT22;3547;50.774;12.918;2022-10-13T13:38:14;17.40;1.00
7014;DHT22;3547;50.774;12.918;2022-10-13T13:40:43;17.10;1.00
7014;DHT22;3547;50.774;12.918;2022-10-13T13:43:09;16.70;1.00
7014;DHT22;3547;50.774;12.918;2022-10-13T13:45:35;16.70;1.00
7014;DHT22;3547;50.774;12.918;2022-10-13T13:48:02;16.60;1.00
7014;DHT22;3547;50.774;12.918;2022-10-13T13:50:34;16.40;1.00
7014;DHT22;3547;50.774;12.918;2022-10-13T13:53:00;16.40;1.00
7014;DHT22;3547;50.774;12.918;2022-10-13T13:55:28;16.30;1.00
7014;DHT22;3547;50.774;12.918;2022-10-13T13:57:55;16.30;1.00
7014;DHT22;3547;50.774;12.918;2022-10-13T14:00:22;16.30;1.00
7014;DHT22;3547;50.774;12.918;2022-10-13T14:02:49;16.20;1.00
7014;DHT22;3547;50.774;12.918;2022-10-13T14:05:18;16.20;1.00
7014;DHT22;3547;50.774;12.918;2022-10-13T14:07:44;16.20;1.00
7014;DHT22;3547;50.774;12.918;2022-10-13T14:10:10;16.10;1.00
7014;DHT22;3547;50.774;12.918;2022-10-13T14:12:48;16.00;1.00
7014;DHT22;3547;50.774;12.918;2022-10-13T14:15:15;16.10;1.00
7014;DHT22;3547;50.774;12.918;2022-10-13T14:17:44;16.00;1.00
7014;DHT22;3547;50.774;12.918;2022-10-13T14:20:11;16.10;1.00
7014;DHT22;3547;50.774;12.918;2022-10-13T14:22:38;16.20;2.60
7014;DHT22;3547;50.774;12.918;2022-10-13T14:25:05;16.20;1.00
7014;DHT22;3547;50.774;12.918;2022-10-13T14:27:33;16.20;1.00
7014;DHT22;3547;50.774;12.918;2022-10-13T14:30:00;16.10;1.00
7014;DHT22;3547;50.774;12.918;2022-10-13T14:32:26;16.10;1.00
7014;DHT22;3547;50.774;12.918;2022-10-13T14:34:53;15.90;1.00
7014;DHT22;3547;50.774;12.918;2022-10-13T14:37:19;15.90;1.00
7014;DHT22;3547;50.774;12.918;2022-10-13T14:39:45;16.00;2.70
7014;DHT22;3547;50.774;12.918;2022-10-13T14:42:11;16.00;1.00
7014;DHT22;3547;50.774;12.918;2022-10-13T14:44:40;16.00;1.00
7014;DHT22;3547;50.774;12.918;2022-10-13T14:47:07;16.00;1.00
7014;DHT22;3547;50.774;12.918;2022-10-13T14:49:33;16.00;1.00
7014;DHT22;3547;50.774;12.918;2022-10-13T14:51:59;16.00;1.00
7014;DHT22;3547;50.774;12.918;2022-10-13T14:54:25;16.00;1.00
7014;DHT22;3547;50.774;12.918;2022-10-13T14:56:51;16.00;1.00
7014;DHT22;3547;50.774;12.918;2022-10-13T14:59:18;16.00;1.00
7014;DHT22;3547;50.774;12.918;2022-10-13T15:01:45;16.00;1.00
7014;DHT22;3547;50.774;12.918;2022-10-13T15:04:12;15.90;1.00
7014;DHT22;3547;50.774;12.918;2022-10-13T15:06:41;15.90;1.00
7014;DHT22;3547;50.774;12.918;2022-10-13T15:09:10;15.90;1.00
7014;DHT22;3547;50.774;12.918;2022-10-13T15:11:40;15.80;1.00
7014;DHT22;3547;50.774;12.918;2022-10-13T15:14:07;15.80;1.00
7014;DHT22;3547;50.774;12.918;2022-10-13T15:16:34;15.70;1.00
7014;DHT22;3547;50.774;12.918;2022-10-13T15:19:05;15.70;1.00
7014;DHT22;3547;50.774;12.918;2022-10-13T15:21:36;15.70;1.00
7014;DHT22;3547;50.774;12.918;2022-10-13T15:24:03;15.60;1.00
7014;DHT22;3547;50.774;12.918;2022-10-13T15:26:29;15.60;1.00
7014;DHT22;3547;50.774;12.918;2022-10-13T15:28:58;15.50;1.00
7014;DHT22;3547;50.774;12.918;2022-10-13T15:31:24;15.40;1.00
7014;DHT22;3547;50.774;12.918;2022-10-13T15:33:52;15.30;1.00
7014;DHT22;3547;50.774;12.918;2022-10-13T15:36:19;15.30;1.00
7014;DHT22;3547;50.774;12.918;2022-10-13T15:38:46;15.30;1.00
7014;DHT22;3547;50.774;12.918;2022-10-13T15:41:13;15.20;1.00
7014;DHT22;3547;50.774;12.918;2022-10-13T15:43:39;15.30;1.00
7014;DHT22;3547;50.774;12.918;2022-10-13T15:46:11;15.20;1.00
7014;DHT22;3547;50.774;12.918;2022-10-13T15:48:38;15.20;1.00
7014;DHT22;3547;50.774;12.918;2022-10-13T15:51:11;15.20;1.00
7014;DHT22;3547;50.774;12.918;2022-10-13T15:53:38;15.20;1.00
7014;DHT22;3547;50.774;12.918;2022-10-13T15:56:06;15.10;1.00
7014;DHT22;3547;50.774;12.918;2022-10-13T15:58:37;15.10;1.00
7014;DHT22;3547;50.774;12.918;2022-10-13T16:01:07;14.90;1.00
7014;DHT22;3547;50.774;12.918;2022-10-13T16:03:33;14.80;1.00
7014;DHT22;3547;50.774;12.918;2022-10-13T16:06:08;14.80;1.00
7014;DHT22;3547;50.774;12.918;2022-10-13T16:08:37;14.70;1.00
7014;DHT22;3547;50.774;12.918;2022-10-13T16:11:09;14.60;1.00
7014;DHT22;3547;50.774;12.918;2022-10-13T16:13:35;14.60;1.00
7014;DHT22;3547;50.774;12.918;2022-10-13T16:16:02;14.50;1.00
7014;DHT22;3547;50.774;12.918;2022-10-13T16:18:34;14.40;1.00
7014;DHT22;3547;50.774;12.918;2022-10-13T16:21:11;14.30;1.00
7014;DHT22;3547;50.774;12.918;2022-10-13T16:23:37;14.20;1.00
7014;DHT22;3547;50.774;12.918;2022-10-13T16:26:04;14.20;1.00
7014;DHT22;3547;50.774;12.918;2022-10-13T16:28:31;14.10;1.00
7014;DHT22;3547;50.774;12.918;2022-10-13T16:31:02;13.90;1.00
7014;DHT22;3547;50.774;12.918;2022-10-13T16:33:29;13.80;1.00
7014;DHT22;3547;50.774;12.918;2022-10-13T16:36:17;13.60;1.00
7014;DHT22;3547;50.774;12.918;2022-10-13T16:38:44;13.50;1.00
7014;DHT22;3547;50.774;12.918;2022-10-13T16:41:16;13.40;1.00
7014;DHT22;3547;50.774;12.918;2022-10-13T16:43:46;13.40;1.00
7014;DHT22;3547;50.774;12.918;2022-10-13T16:46:19;13.30;1.00
7014;DHT22;3547;50.774;12.918;2022-10-13T16:49:06;13.30;1.00
7014;DHT22;3547;50.774;12.918;2022-10-13T16:52:08;13.10;1.00
7014;DHT22;3547;50.774;12.918;2022-10-13T16:54:35;13.20;1.00
7014;DHT22;3547;50.774;12.918;2022-10-13T16:57:02;13.00;1.00
7014;DHT22;3547;50.774;12.918;2022-10-13T16:59:36;13.00;1.00
7014;DHT22;3547;50.774;12.918;2022-10-13T17:02:02;13.00;1.00
7014;DHT22;3547;50.774;12.918;2022-10-13T17:04:30;12.80;1.00
7014;DHT22;3547;50.774;12.918;2022-10-13T17:06:59;12.90;1.00
7014;DHT22;3547;50.774;12.918;2022-10-13T17:09:26;12.90;1.00
7014;DHT22;3547;50.774;12.918;2022-10-13T17:11:56;12.70;1.00
7014;DHT22;3547;50.774;12.918;2022-10-13T17:14:32;12.70;1.00
7014;DHT22;3547;50.774;12.918;2022-10-13T17:46:49;12.60;9.30
7014;DHT22;3547;50.774;12.918;2022-10-13T17:49:16;12.60;2.70
7014;DHT22;3547;50.774;12.918;2022-10-13T17:51:43;12.70;3.30
7014;DHT22;3547;50.774;12.918;2022-10-13T17:54:10;12.60;3.70
7014;DHT22;3547;50.774;12.918;2022-10-13T17:56:37;12.70;5.30
7014;DHT22;3547;50.774;12.918;2022-10-13T17:59:16;12.80;1.80
7014;DHT22;3547;50.774;12.918;2022-10-13T23:31:07;10.90;30.90
7014;DHT22;3547;50.774;12.918;2022-10-13T23:33:34;10.90;30.50
7014;DHT22;3547;50.774;12.918;2022-10-13T23:36:01;10.90;29.50
7014;DHT22;3547;50.774;12.918;2022-10-13T23:38:29;10.90;28.40
7014;DHT22;3547;50.774;12.918;2022-10-13T23:41:08;10.90;28.30
7014;DHT22;3547;50.774;12.918;2022-10-13T23:43:34;10.80;27.40
7014;DHT22;3547;50.774;12.918;2022-10-13T23:46:01;10.80;27.80
7014;DHT22;3547;50.774;12.918;2022-10-13T23:48:28;10.70;26.90
7014;DHT22;3547;50.774;12.918;2022-10-13T23:50:55;10.70;29.80
7014;DHT22;3547;50.774;12.918;2022-10-13T23:53:21;10.70;29.30
7014;DHT22;3547;50.774;12.918;2022-10-13T23:55:47;10.70;28.20
7014;DHT22;3547;50.774;12.918;2022-10-13T23:58:14;10.70;28.20
